sensor_id;sensor_type;location;lat;lon;timestamp;P1;durP1;ratioP1;P2;durP2;ratioP2
9461;SDS011;4769;42.660;23.262;2023-08-21T00:00:59;8.48;;;6.22;;
9461;SDS011;4769;42.660;23.262;2023-08-21T00:03:24;7.28;;;5.70;;
9461;SDS011;4769;42.660;23.262;2023-08-21T00:05:50;7.53;;;5.70;;
9461;SDS011;4769;42.660;23.262;2023-08-21T00:08:16;6.60;;;5.97;;
9461;SDS011;4769;42.660;23.262;2023-08-21T00:10:42;6.78;;;6.18;;
9461;SDS011;4769;42.660;23.262;2023-08-21T00:13:10;7.53;;;5.63;;
9461;SDS011;4769;42.660;23.262;2023-08-21T00:15:37;8.90;;;5.70;;
9461;SDS011;4769;42.660;23.262;2023-08-21T00:18:03;6.25;;;5.63;;
9461;SDS011;4769;42.660;23.262;2023-08-21T00:20:29;7.18;;;5.72;;
9461;SDS011;4769;42.660;23.262;2023-08-21T00:22:55;5.82;;;5.28;;
9461;SDS011;4769;42.660;23.262;2023-08-21T00:25:21;8.60;;;5.88;;
9461;SDS011;4769;42.660;23.262;2023-08-21T00:27:47;6.63;;;5.72;;
9461;SDS011;4769;42.660;23.262;2023-08-21T00:30:15;8.35;;;6.15;;
9461;SDS011;4769;42.660;23.262;2023-08-21T00:32:41;7.10;;;5.93;;
9461;SDS011;4769;42.660;23.262;2023-08-21T00:35:07;6.80;;;5.95;;
9461;SDS011;4769;42.660;23.262;2023-08-21T00:37:33;6.88;;;6.18;;
9461;SDS011;4769;42.660;23.262;2023-08-21T00:39:58;6.88;;;5.90;;
9461;SDS011;4769;42.660;23.262;2023-08-21T00:42:24;7.85;;;6.03;;
9461;SDS011;4769;42.660;23.262;2023-08-21T00:44:50;8.50;;;6.10;;
9461;SDS011;4769;42.660;23.262;2023-08-21T00:47:18;6.22;;;5.63;;
9461;SDS011;4769;42.660;23.262;2023-08-21T00:49:44;8.77;;;6.22;;
9461;SDS011;4769;42.660;23.262;2023-08-21T00:52:10;6.70;;;6.10;;
9461;SDS011;4769;42.660;23.262;2023-08-21T00:54:37;6.82;;;6.10;;
9461;SDS011;4769;42.660;23.262;2023-08-21T00:57:03;9.10;;;6.70;;
9461;SDS011;4769;42.660;23.262;2023-08-21T00:59:29;7.00;;;5.88;;
9461;SDS011;4769;42.660;23.262;2023-08-21T01:01:56;6.28;;;5.72;;
9461;SDS011;4769;42.660;23.262;2023-08-21T01:04:24;6.75;;;5.95;;
9461;SDS011;4769;42.660;23.262;2023-08-21T01:06:50;6.47;;;5.88;;
9461;SDS011;4769;42.660;23.262;2023-08-21T01:09:17;7.57;;;6.03;;
9461;SDS011;4769;42.660;23.262;2023-08-21T01:11:50;6.05;;;5.55;;
9461;SDS011;4769;42.660;23.262;2023-08-21T01:14:26;8.73;;;5.20;;
9461;SDS011;4769;42.660;23.262;2023-08-21T01:16:55;6.72;;;5.72;;
9461;SDS011;4769;42.660;23.262;2023-08-21T01:19:30;11.10;;;6.18;;
9461;SDS011;4769;42.660;23.262;2023-08-21T01:22:00;7.75;;;6.40;;
9461;SDS011;4769;42.660;23.262;2023-08-21T01:24:29;9.38;;;5.72;;
9461;SDS011;4769;42.660;23.262;2023-08-21T01:26:55;6.47;;;5.88;;
9461;SDS011;4769;42.660;23.262;2023-08-21T01:29:21;7.28;;;6.53;;
9461;SDS011;4769;42.660;23.262;2023-08-21T01:31:48;8.32;;;5.60;;
9461;SDS011;4769;42.660;23.262;2023-08-21T01:34:17;6.90;;;5.90;;
9461;SDS011;4769;42.660;23.262;2023-08-21T01:36:44;6.55;;;5.95;;
9461;SDS011;4769;42.660;23.262;2023-08-21T01:39:11;8.02;;;6.30;;
9461;SDS011;4769;42.660;23.262;2023-08-21T01:41:40;8.18;;;5.82;;
9461;SDS011;4769;42.660;23.262;2023-08-21T01:44:06;7.20;;;5.45;;
9461;SDS011;4769;42.660;23.262;2023-08-21T01:46:32;6.32;;;5.72;;
9461;SDS011;4769;42.660;23.262;2023-08-21T01:48:58;7.20;;;6.20;;
9461;SDS011;4769;42.660;23.262;2023-08-21T01:51:23;6.05;;;5.55;;
9461;SDS011;4769;42.660;23.262;2023-08-21T01:53:49;8.02;;;6.07;;
9461;SDS011;4769;42.660;23.262;2023-08-21T01:56:15;7.28;;;6.15;;
9461;SDS011;4769;42.660;23.262;2023-08-21T01:58:43;6.13;;;5.50;;
9461;SDS011;4769;42.660;23.262;2023-08-21T02:01:09;7.32;;;5.90;;
9461;SDS011;4769;42.660;23.262;2023-08-21T02:03:34;6.65;;;6.05;;
9461;SDS011;4769;42.660;23.262;2023-08-21T02:06:00;8.77;;;6.72;;
9461;SDS011;4769;42.660;23.262;2023-08-21T02:08:27;6.55;;;6.05;;
9461;SDS011;4769;42.660;23.262;2023-08-21T02:10:56;6.32;;;5.72;;
9461;SDS011;4769;42.660;23.262;2023-08-21T02:13:21;6.38;;;5.45;;
9461;SDS011;4769;42.660;23.262;2023-08-21T02:15:50;6.22;;;5.70;;
9461;SDS011;4769;42.660;23.262;2023-08-21T02:18:15;7.00;;;5.88;;
9461;SDS011;4769;42.660;23.262;2023-08-21T02:20:41;6.35;;;5.70;;
9461;SDS011;4769;42.660;23.262;2023-08-21T02:23:07;7.10;;;5.82;;
9461;SDS011;4769;42.660;23.262;2023-08-21T02:25:33;5.97;;;5.47;;
9461;SDS011;4769;42.660;23.262;2023-08-21T02:27:59;6.07;;;5.43;;
9461;SDS011;4769;42.660;23.262;2023-08-21T02:30:25;6.18;;;5.22;;
9461;SDS011;4769;42.660;23.262;2023-08-21T02:32:55;6.43;;;5.65;;
9461;SDS011;4769;42.660;23.262;2023-08-21T02:35:20;6.53;;;5.97;;
9461;SDS011;4769;42.660;23.262;2023-08-21T02:37:46;6.40;;;5.80;;
9461;SDS011;4769;42.660;23.262;2023-08-21T02:40:12;5.95;;;5.32;;
9461;SDS011;4769;42.660;23.262;2023-08-21T02:42:38;10.00;;;6.22;;
9461;SDS011;4769;42.660;23.262;2023-08-21T02:45:04;8.95;;;6.32;;
9461;SDS011;4769;42.660;23.262;2023-08-21T02:47:30;6.78;;;6.15;;
9461;SDS011;4769;42.660;23.262;2023-08-21T02:49:59;6.93;;;5.55;;
9461;SDS011;4769;42.660;23.262;2023-08-21T02:52:24;6.80;;;5.60;;
9461;SDS011;4769;42.660;23.262;2023-08-21T02:54:50;6.22;;;5.65;;
9461;SDS011;4769;42.660;23.262;2023-08-21T02:57:16;7.50;;;5.65;;
9461;SDS011;4769;42.660;23.262;2023-08-21T02:59:42;7.70;;;5.55;;
9461;SDS011;4769;42.660;23.262;2023-08-21T03:02:07;8.18;;;5.70;;
9461;SDS011;4769;42.660;23.262;2023-08-21T03:04:33;6.53;;;5.93;;
9461;SDS011;4769;42.660;23.262;2023-08-21T03:07:01;7.10;;;5.82;;
9461;SDS011;4769;42.660;23.262;2023-08-21T03:09:27;6.50;;;5.80;;
9461;SDS011;4769;42.660;23.262;2023-08-21T03:11:53;8.85;;;6.22;;
9461;SDS011;4769;42.660;23.262;2023-08-21T03:14:18;6.88;;;6.20;;
9461;SDS011;4769;42.660;23.262;2023-08-21T03:16:44;6.53;;;5.85;;
9461;SDS011;4769;42.660;23.262;2023-08-21T03:19:10;7.97;;;5.65;;
9461;SDS011;4769;42.660;23.262;2023-08-21T03:21:36;6.45;;;5.75;;
9461;SDS011;4769;42.660;23.262;2023-08-21T03:24:05;6.65;;;5.88;;
9461;SDS011;4769;42.660;23.262;2023-08-21T03:26:31;7.80;;;6.00;;
9461;SDS011;4769;42.660;23.262;2023-08-21T03:28:57;7.57;;;6.32;;
9461;SDS011;4769;42.660;23.262;2023-08-21T03:31:23;6.55;;;6.03;;
9461;SDS011;4769;42.660;23.262;2023-08-21T03:33:49;7.32;;;6.35;;
9461;SDS011;4769;42.660;23.262;2023-08-21T03:36:14;7.20;;;6.50;;
9461;SDS011;4769;42.660;23.262;2023-08-21T03:38:40;7.53;;;6.82;;
9461;SDS011;4769;42.660;23.262;2023-08-21T03:41:08;7.47;;;6.60;;
9461;SDS011;4769;42.660;23.262;2023-08-21T03:43:34;8.93;;;7.13;;
9461;SDS011;4769;42.660;23.262;2023-08-21T03:46:00;8.48;;;6.70;;
9461;SDS011;4769;42.660;23.262;2023-08-21T03:48:26;8.30;;;6.60;;
9461;SDS011;4769;42.660;23.262;2023-08-21T03:50:51;6.70;;;5.97;;
9461;SDS011;4769;42.660;23.262;2023-08-21T03:53:17;7.88;;;6.40;;
9461;SDS011;4769;42.660;23.262;2023-08-21T03:55:43;7.57;;;6.78;;
9461;SDS011;4769;42.660;23.262;2023-08-21T03:58:11;9.45;;;6.82;;
9461;SDS011;4769;42.660;23.262;2023-08-21T04:00:38;11.57;;;7.05;;
9461;SDS011;4769;42.660;23.262;2023-08-21T04:03:04;12.07;;;7.07;;
9461;SDS011;4769;42.660;23.262;2023-08-21T04:05:30;9.00;;;7.07;;
9461;SDS011;4769;42.660;23.262;2023-08-21T04:07:55;9.43;;;6.32;;
9461;SDS011;4769;42.660;23.262;2023-08-21T04:10:21;9.02;;;6.10;;
9461;SDS011;4769;42.660;23.262;2023-08-21T04:12:47;8.38;;;6.13;;
9461;SDS011;4769;42.660;23.262;2023-08-21T04:15:15;7.40;;;6.22;;
9461;SDS011;4769;42.660;23.262;2023-08-21T04:17:41;7.45;;;6.38;;
9461;SDS011;4769;42.660;23.262;2023-08-21T04:20:07;9.38;;;6.57;;
9461;SDS011;4769;42.660;23.262;2023-08-21T04:22:34;11.90;;;6.78;;
9461;SDS011;4769;42.660;23.262;2023-08-21T04:24:59;10.20;;;6.85;;
9461;SDS011;4769;42.660;23.262;2023-08-21T04:27:25;9.15;;;6.70;;
9461;SDS011;4769;42.660;23.262;2023-08-21T04:29:51;8.60;;;6.85;;
9461;SDS011;4769;42.660;23.262;2023-08-21T04:32:21;9.82;;;6.57;;
9461;SDS011;4769;42.660;23.262;2023-08-21T04:34:47;10.40;;;6.80;;
9461;SDS011;4769;42.660;23.262;2023-08-21T04:37:12;10.57;;;6.55;;
9461;SDS011;4769;42.660;23.262;2023-08-21T04:39:38;17.42;;;8.00;;
9461;SDS011;4769;42.660;23.262;2023-08-21T04:42:04;11.35;;;7.70;;
9461;SDS011;4769;42.660;23.262;2023-08-21T04:44:30;14.45;;;7.40;;
9461;SDS011;4769;42.660;23.262;2023-08-21T04:46:55;13.55;;;7.85;;
9461;SDS011;4769;42.660;23.262;2023-08-21T04:49:24;12.57;;;7.78;;
9461;SDS011;4769;42.660;23.262;2023-08-21T04:51:49;13.73;;;7.78;;
9461;SDS011;4769;42.660;23.262;2023-08-21T04:54:15;10.18;;;7.30;;
9461;SDS011;4769;42.660;23.262;2023-08-21T04:56:41;15.95;;;8.73;;
9461;SDS011;4769;42.660;23.262;2023-08-21T04:59:07;16.20;;;9.55;;
9461;SDS011;4769;42.660;23.262;2023-08-21T05:01:33;16.77;;;10.38;;
9461;SDS011;4769;42.660;23.262;2023-08-21T05:03:59;16.92;;;10.70;;
9461;SDS011;4769;42.660;23.262;2023-08-21T05:06:27;14.80;;;10.27;;
9461;SDS011;4769;42.660;23.262;2023-08-21T05:08:53;17.00;;;9.73;;
9461;SDS011;4769;42.660;23.262;2023-08-21T05:11:19;17.00;;;10.73;;
9461;SDS011;4769;42.660;23.262;2023-08-21T05:13:44;16.08;;;10.00;;
9461;SDS011;4769;42.660;23.262;2023-08-21T05:16:10;16.90;;;9.20;;
9461;SDS011;4769;42.660;23.262;2023-08-21T05:18:36;13.48;;;8.63;;
9461;SDS011;4769;42.660;23.262;2023-08-21T05:21:02;13.98;;;8.88;;
9461;SDS011;4769;42.660;23.262;2023-08-21T05:23:30;17.80;;;8.57;;
9461;SDS011;4769;42.660;23.262;2023-08-21T05:25:56;17.08;;;8.70;;
9461;SDS011;4769;42.660;23.262;2023-08-21T05:28:21;16.05;;;8.93;;
9461;SDS011;4769;42.660;23.262;2023-08-21T05:30:47;12.73;;;9.05;;
9461;SDS011;4769;42.660;23.262;2023-08-21T05:33:13;16.17;;;9.70;;
9461;SDS011;4769;42.660;23.262;2023-08-21T05:35:38;12.35;;;8.52;;
9461;SDS011;4769;42.660;23.262;2023-08-21T05:38:05;12.32;;;8.82;;
9461;SDS011;4769;42.660;23.262;2023-08-21T05:40:33;16.38;;;8.43;;
9461;SDS011;4769;42.660;23.262;2023-08-21T05:42:59;17.45;;;9.27;;
9461;SDS011;4769;42.660;23.262;2023-08-21T05:45:25;17.23;;;9.18;;
9461;SDS011;4769;42.660;23.262;2023-08-21T05:47:51;17.02;;;9.30;;
9461;SDS011;4769;42.660;23.262;2023-08-21T05:50:16;12.10;;;8.48;;
9461;SDS011;4769;42.660;23.262;2023-08-21T05:52:42;13.48;;;8.00;;
9461;SDS011;4769;42.660;23.262;2023-08-21T05:55:08;19.50;;;8.95;;
9461;SDS011;4769;42.660;23.262;2023-08-21T05:57:36;13.35;;;8.75;;
9461;SDS011;4769;42.660;23.262;2023-08-21T06:00:03;11.27;;;7.78;;
9461;SDS011;4769;42.660;23.262;2023-08-21T06:02:29;16.15;;;8.32;;
9461;SDS011;4769;42.660;23.262;2023-08-21T06:04:55;13.68;;;8.85;;
9461;SDS011;4769;42.660;23.262;2023-08-21T06:07:20;15.27;;;8.52;;
9461;SDS011;4769;42.660;23.262;2023-08-21T06:09:46;16.83;;;8.73;;
9461;SDS011;4769;42.660;23.262;2023-08-21T06:12:12;13.70;;;7.90;;
9461;SDS011;4769;42.660;23.262;2023-08-21T06:14:40;15.65;;;8.27;;
9461;SDS011;4769;42.660;23.262;2023-08-21T06:17:06;12.80;;;7.70;;
9461;SDS011;4769;42.660;23.262;2023-08-21T06:19:32;11.52;;;8.18;;
9461;SDS011;4769;42.660;23.262;2023-08-21T06:21:57;11.98;;;8.18;;
9461;SDS011;4769;42.660;23.262;2023-08-21T06:24:23;13.50;;;8.80;;
9461;SDS011;4769;42.660;23.262;2023-08-21T06:26:50;16.70;;;8.32;;
9461;SDS011;4769;42.660;23.262;2023-08-21T06:29:16;16.83;;;8.18;;
9461;SDS011;4769;42.660;23.262;2023-08-21T06:31:45;16.48;;;7.10;;
9461;SDS011;4769;42.660;23.262;2023-08-21T06:34:10;15.40;;;7.97;;
9461;SDS011;4769;42.660;23.262;2023-08-21T06:36:36;15.80;;;7.38;;
9461;SDS011;4769;42.660;23.262;2023-08-21T06:39:02;7.30;;;6.47;;
9461;SDS011;4769;42.660;23.262;2023-08-21T06:41:28;15.25;;;7.28;;
9461;SDS011;4769;42.660;23.262;2023-08-21T06:43:54;10.48;;;7.50;;
9461;SDS011;4769;42.660;23.262;2023-08-21T06:46:19;14.73;;;6.90;;
9461;SDS011;4769;42.660;23.262;2023-08-21T06:48:48;10.63;;;6.97;;
9461;SDS011;4769;42.660;23.262;2023-08-21T06:51:13;11.63;;;7.65;;
9461;SDS011;4769;42.660;23.262;2023-08-21T06:53:39;11.88;;;6.78;;
9461;SDS011;4769;42.660;23.262;2023-08-21T06:56:05;13.18;;;7.57;;
9461;SDS011;4769;42.660;23.262;2023-08-21T06:58:30;11.27;;;7.78;;
9461;SDS011;4769;42.660;23.262;2023-08-21T07:00:56;12.55;;;7.88;;
9461;SDS011;4769;42.660;23.262;2023-08-21T07:03:22;12.90;;;7.28;;
9461;SDS011;4769;42.660;23.262;2023-08-21T07:05:55;11.70;;;7.63;;
9461;SDS011;4769;42.660;23.262;2023-08-21T07:08:22;13.63;;;8.15;;
9461;SDS011;4769;42.660;23.262;2023-08-21T07:10:48;9.38;;;6.47;;
9461;SDS011;4769;42.660;23.262;2023-08-21T07:13:13;10.80;;;6.80;;
9461;SDS011;4769;42.660;23.262;2023-08-21T07:15:39;8.35;;;6.65;;
9461;SDS011;4769;42.660;23.262;2023-08-21T07:18:05;10.80;;;6.80;;
9461;SDS011;4769;42.660;23.262;2023-08-21T07:20:31;7.93;;;6.65;;
9461;SDS011;4769;42.660;23.262;2023-08-21T07:22:59;7.85;;;6.32;;
9461;SDS011;4769;42.660;23.262;2023-08-21T07:25:25;9.65;;;6.55;;
9461;SDS011;4769;42.660;23.262;2023-08-21T07:27:51;9.20;;;6.45;;
9461;SDS011;4769;42.660;23.262;2023-08-21T07:30:17;10.10;;;6.10;;
9461;SDS011;4769;42.660;23.262;2023-08-21T07:32:43;9.52;;;7.38;;
9461;SDS011;4769;42.660;23.262;2023-08-21T07:35:08;6.57;;;5.93;;
9461;SDS011;4769;42.660;23.262;2023-08-21T07:37:34;8.95;;;6.03;;
9461;SDS011;4769;42.660;23.262;2023-08-21T07:40:02;10.05;;;6.03;;
9461;SDS011;4769;42.660;23.262;2023-08-21T07:42:29;6.05;;;5.45;;
9461;SDS011;4769;42.660;23.262;2023-08-21T07:44:55;10.60;;;6.80;;
9461;SDS011;4769;42.660;23.262;2023-08-21T07:47:21;10.82;;;5.82;;
9461;SDS011;4769;42.660;23.262;2023-08-21T07:49:46;9.55;;;6.82;;
9461;SDS011;4769;42.660;23.262;2023-08-21T07:52:12;6.88;;;6.13;;
9461;SDS011;4769;42.660;23.262;2023-08-21T07:54:38;11.27;;;6.28;;
9461;SDS011;4769;42.660;23.262;2023-08-21T07:57:06;9.50;;;6.18;;
9461;SDS011;4769;42.660;23.262;2023-08-21T07:59:32;7.80;;;6.00;;
9461;SDS011;4769;42.660;23.262;2023-08-21T08:01:58;24.17;;;21.73;;
9461;SDS011;4769;42.660;23.262;2023-08-21T08:04:23;7.47;;;6.40;;
9461;SDS011;4769;42.660;23.262;2023-08-21T08:06:49;6.55;;;5.95;;
9461;SDS011;4769;42.660;23.262;2023-08-21T08:09:15;8.07;;;5.78;;
9461;SDS011;4769;42.660;23.262;2023-08-21T08:11:40;9.95;;;6.22;;
9461;SDS011;4769;42.660;23.262;2023-08-21T08:14:09;7.43;;;5.57;;
9461;SDS011;4769;42.660;23.262;2023-08-21T08:16:34;6.30;;;5.70;;
9461;SDS011;4769;42.660;23.262;2023-08-21T08:19:00;8.07;;;6.05;;
9461;SDS011;4769;42.660;23.262;2023-08-21T08:21:26;7.93;;;6.55;;
9461;SDS011;4769;42.660;23.262;2023-08-21T08:23:51;8.73;;;5.38;;
9461;SDS011;4769;42.660;23.262;2023-08-21T08:26:17;8.18;;;5.78;;
9461;SDS011;4769;42.660;23.262;2023-08-21T08:28:43;9.98;;;6.10;;
9461;SDS011;4769;42.660;23.262;2023-08-21T08:31:16;6.40;;;5.78;;
9461;SDS011;4769;42.660;23.262;2023-08-21T08:33:42;6.97;;;5.80;;
9461;SDS011;4769;42.660;23.262;2023-08-21T08:36:08;6.78;;;5.93;;
9461;SDS011;4769;42.660;23.262;2023-08-21T08:38:34;6.82;;;5.90;;
9461;SDS011;4769;42.660;23.262;2023-08-21T08:41:00;6.63;;;5.97;;
9461;SDS011;4769;42.660;23.262;2023-08-21T08:43:27;7.22;;;5.85;;
9461;SDS011;4769;42.660;23.262;2023-08-21T08:45:54;12.43;;;7.45;;
9461;SDS011;4769;42.660;23.262;2023-08-21T08:48:25;12.60;;;6.75;;
9461;SDS011;4769;42.660;23.262;2023-08-21T08:50:51;8.73;;;6.43;;
9461;SDS011;4769;42.660;23.262;2023-08-21T08:53:17;7.65;;;5.70;;
9461;SDS011;4769;42.660;23.262;2023-08-21T08:55:43;6.88;;;5.53;;
9461;SDS011;4769;42.660;23.262;2023-08-21T08:58:09;9.18;;;5.22;;
9461;SDS011;4769;42.660;23.262;2023-08-21T09:00:35;7.70;;;5.47;;
9461;SDS011;4769;42.660;23.262;2023-08-21T09:03:00;10.55;;;6.03;;
9461;SDS011;4769;42.660;23.262;2023-08-21T09:05:29;6.50;;;5.47;;
9461;SDS011;4769;42.660;23.262;2023-08-21T09:08:04;5.80;;;5.18;;
9461;SDS011;4769;42.660;23.262;2023-08-21T09:10:37;8.73;;;7.82;;
9461;SDS011;4769;42.660;23.262;2023-08-21T09:13:08;6.80;;;6.05;;
9461;SDS011;4769;42.660;23.262;2023-08-21T09:15:36;12.45;;;7.10;;
9461;SDS011;4769;42.660;23.262;2023-08-21T09:18:01;7.80;;;6.65;;
9461;SDS011;4769;42.660;23.262;2023-08-21T09:20:30;6.88;;;5.63;;
9461;SDS011;4769;42.660;23.262;2023-08-21T09:23:00;9.48;;;7.43;;
9461;SDS011;4769;42.660;23.262;2023-08-21T09:25:25;8.35;;;6.80;;
9461;SDS011;4769;42.660;23.262;2023-08-21T09:27:51;8.07;;;6.57;;
9461;SDS011;4769;42.660;23.262;2023-08-21T09:30:17;7.13;;;6.43;;
9461;SDS011;4769;42.660;23.262;2023-08-21T09:32:53;8.43;;;5.78;;
9461;SDS011;4769;42.660;23.262;2023-08-21T09:35:19;15.10;;;9.73;;
9461;SDS011;4769;42.660;23.262;2023-08-21T09:37:48;11.05;;;8.13;;
9461;SDS011;4769;42.660;23.262;2023-08-21T09:40:15;11.95;;;7.80;;
9461;SDS011;4769;42.660;23.262;2023-08-21T09:42:40;6.85;;;5.82;;
9461;SDS011;4769;42.660;23.262;2023-08-21T09:45:07;8.32;;;7.10;;
9461;SDS011;4769;42.660;23.262;2023-08-21T09:47:33;9.73;;;7.22;;
9461;SDS011;4769;42.660;23.262;2023-08-21T09:50:00;11.40;;;7.20;;
9461;SDS011;4769;42.660;23.262;2023-08-21T09:52:25;8.77;;;5.40;;
9461;SDS011;4769;42.660;23.262;2023-08-21T09:54:56;6.57;;;4.90;;
9461;SDS011;4769;42.660;23.262;2023-08-21T09:57:22;5.97;;;5.20;;
9461;SDS011;4769;42.660;23.262;2023-08-21T09:59:49;7.22;;;5.18;;
9461;SDS011;4769;42.660;23.262;2023-08-21T10:02:18;9.25;;;5.38;;
9461;SDS011;4769;42.660;23.262;2023-08-21T10:04:45;6.75;;;5.22;;
9461;SDS011;4769;42.660;23.262;2023-08-21T10:07:13;6.47;;;5.60;;
9461;SDS011;4769;42.660;23.262;2023-08-21T10:09:40;7.07;;;5.30;;
9461;SDS011;4769;42.660;23.262;2023-08-21T10:12:11;6.70;;;5.13;;
9461;SDS011;4769;42.660;23.262;2023-08-21T10:14:39;5.90;;;5.30;;
9461;SDS011;4769;42.660;23.262;2023-08-21T10:17:06;7.28;;;5.20;;
9461;SDS011;4769;42.660;23.262;2023-08-21T10:19:32;5.82;;;4.90;;
9461;SDS011;4769;42.660;23.262;2023-08-21T10:21:58;9.73;;;5.22;;
9461;SDS011;4769;42.660;23.262;2023-08-21T10:24:27;6.50;;;4.82;;
9461;SDS011;4769;42.660;23.262;2023-08-21T10:26:53;7.38;;;5.20;;
9461;SDS011;4769;42.660;23.262;2023-08-21T10:29:21;8.88;;;5.20;;
9461;SDS011;4769;42.660;23.262;2023-08-21T10:31:58;7.75;;;5.38;;
9461;SDS011;4769;42.660;23.262;2023-08-21T10:34:25;8.13;;;4.88;;
9461;SDS011;4769;42.660;23.262;2023-08-21T10:37:07;5.47;;;4.53;;
9461;SDS011;4769;42.660;23.262;2023-08-21T10:39:34;7.68;;;4.82;;
9461;SDS011;4769;42.660;23.262;2023-08-21T10:42:00;6.65;;;5.10;;
9461;SDS011;4769;42.660;23.262;2023-08-21T10:44:36;8.15;;;4.97;;
9461;SDS011;4769;42.660;23.262;2023-08-21T10:47:15;7.30;;;5.35;;
9461;SDS011;4769;42.660;23.262;2023-08-21T10:49:43;7.07;;;4.97;;
9461;SDS011;4769;42.660;23.262;2023-08-21T10:52:09;5.75;;;5.18;;
9461;SDS011;4769;42.660;23.262;2023-08-21T10:54:42;6.40;;;4.88;;
9461;SDS011;4769;42.660;23.262;2023-08-21T10:57:09;6.68;;;4.78;;
9461;SDS011;4769;42.660;23.262;2023-08-21T10:59:37;6.72;;;5.40;;
9461;SDS011;4769;42.660;23.262;2023-08-21T11:02:03;5.43;;;4.55;;
9461;SDS011;4769;42.660;23.262;2023-08-21T11:04:38;6.45;;;4.38;;
9461;SDS011;4769;42.660;23.262;2023-08-21T11:07:05;6.97;;;4.85;;
9461;SDS011;4769;42.660;23.262;2023-08-21T11:09:30;9.02;;;5.32;;
9461;SDS011;4769;42.660;23.262;2023-08-21T11:11:56;8.60;;;4.75;;
9461;SDS011;4769;42.660;23.262;2023-08-21T11:14:25;6.03;;;4.75;;
9461;SDS011;4769;42.660;23.262;2023-08-21T11:16:53;6.53;;;4.63;;
9461;SDS011;4769;42.660;23.262;2023-08-21T11:19:19;7.03;;;4.40;;
9461;SDS011;4769;42.660;23.262;2023-08-21T11:21:50;5.78;;;4.68;;
9461;SDS011;4769;42.660;23.262;2023-08-21T11:24:16;7.68;;;4.57;;
9461;SDS011;4769;42.660;23.262;2023-08-21T11:26:41;4.82;;;4.43;;
9461;SDS011;4769;42.660;23.262;2023-08-21T11:29:07;5.15;;;4.32;;
9461;SDS011;4769;42.660;23.262;2023-08-21T11:31:33;6.65;;;4.50;;
9461;SDS011;4769;42.660;23.262;2023-08-21T11:34:02;5.00;;;4.45;;
9461;SDS011;4769;42.660;23.262;2023-08-21T11:36:27;4.82;;;4.40;;
9461;SDS011;4769;42.660;23.262;2023-08-21T11:38:59;7.63;;;4.70;;
9461;SDS011;4769;42.660;23.262;2023-08-21T11:41:26;5.47;;;4.38;;
9461;SDS011;4769;42.660;23.262;2023-08-21T11:43:52;6.03;;;4.60;;
9461;SDS011;4769;42.660;23.262;2023-08-21T11:46:18;8.38;;;4.80;;
9461;SDS011;4769;42.660;23.262;2023-08-21T11:48:44;7.57;;;4.90;;
9461;SDS011;4769;42.660;23.262;2023-08-21T11:51:12;5.05;;;4.55;;
9461;SDS011;4769;42.660;23.262;2023-08-21T11:53:38;5.47;;;4.80;;
9461;SDS011;4769;42.660;23.262;2023-08-21T11:56:09;7.43;;;4.93;;
9461;SDS011;4769;42.660;23.262;2023-08-21T11:58:37;10.23;;;5.20;;
9461;SDS011;4769;42.660;23.262;2023-08-21T12:01:03;13.13;;;5.25;;
9461;SDS011;4769;42.660;23.262;2023-08-21T12:03:29;5.35;;;4.75;;
9461;SDS011;4769;42.660;23.262;2023-08-21T12:05:55;5.97;;;4.38;;
9461;SDS011;4769;42.660;23.262;2023-08-21T12:08:23;5.47;;;4.13;;
9461;SDS011;4769;42.660;23.262;2023-08-21T12:10:49;8.10;;;5.20;;
9461;SDS011;4769;42.660;23.262;2023-08-21T12:13:16;5.53;;;4.78;;
9461;SDS011;4769;42.660;23.262;2023-08-21T12:15:41;7.93;;;4.50;;
9461;SDS011;4769;42.660;23.262;2023-08-21T12:18:07;7.35;;;4.90;;
9461;SDS011;4769;42.660;23.262;2023-08-21T12:20:33;5.28;;;4.78;;
9461;SDS011;4769;42.660;23.262;2023-08-21T12:22:58;6.65;;;4.88;;
9461;SDS011;4769;42.660;23.262;2023-08-21T12:25:27;4.80;;;4.40;;
9461;SDS011;4769;42.660;23.262;2023-08-21T12:27:52;6.50;;;5.22;;
9461;SDS011;4769;42.660;23.262;2023-08-21T12:30:18;5.88;;;4.40;;
9461;SDS011;4769;42.660;23.262;2023-08-21T12:32:44;6.63;;;4.53;;
9461;SDS011;4769;42.660;23.262;2023-08-21T12:35:09;9.40;;;5.18;;
9461;SDS011;4769;42.660;23.262;2023-08-21T12:37:35;5.72;;;5.22;;
9461;SDS011;4769;42.660;23.262;2023-08-21T12:40:01;6.55;;;5.00;;
9461;SDS011;4769;42.660;23.262;2023-08-21T12:42:29;5.28;;;4.75;;
9461;SDS011;4769;42.660;23.262;2023-08-21T12:44:55;5.45;;;4.68;;
9461;SDS011;4769;42.660;23.262;2023-08-21T12:47:21;6.85;;;4.75;;
9461;SDS011;4769;42.660;23.262;2023-08-21T12:49:46;6.85;;;4.68;;
9461;SDS011;4769;42.660;23.262;2023-08-21T12:52:12;5.22;;;4.70;;
9461;SDS011;4769;42.660;23.262;2023-08-21T12:54:38;5.80;;;4.63;;
9461;SDS011;4769;42.660;23.262;2023-08-21T12:57:04;5.10;;;4.60;;
9461;SDS011;4769;42.660;23.262;2023-08-21T12:59:32;8.35;;;4.57;;
9461;SDS011;4769;42.660;23.262;2023-08-21T13:01:58;5.75;;;4.75;;
9461;SDS011;4769;42.660;23.262;2023-08-21T13:04:24;6.72;;;4.50;;
9461;SDS011;4769;42.660;23.262;2023-08-21T13:06:50;6.78;;;4.68;;
9461;SDS011;4769;42.660;23.262;2023-08-21T13:09:16;6.75;;;5.00;;
9461;SDS011;4769;42.660;23.262;2023-08-21T13:11:41;4.82;;;4.30;;
9461;SDS011;4769;42.660;23.262;2023-08-21T13:14:07;7.70;;;4.53;;
9461;SDS011;4769;42.660;23.262;2023-08-21T13:16:35;6.72;;;4.72;;
9461;SDS011;4769;42.660;23.262;2023-08-21T13:19:01;5.18;;;4.78;;
9461;SDS011;4769;42.660;23.262;2023-08-21T13:21:27;7.07;;;4.47;;
9461;SDS011;4769;42.660;23.262;2023-08-21T13:23:52;4.32;;;3.92;;
9461;SDS011;4769;42.660;23.262;2023-08-21T13:26:18;6.85;;;4.65;;
9461;SDS011;4769;42.660;23.262;2023-08-21T13:28:44;6.10;;;5.00;;
9461;SDS011;4769;42.660;23.262;2023-08-21T13:31:09;5.22;;;4.78;;
9461;SDS011;4769;42.660;23.262;2023-08-21T13:33:46;7.13;;;4.80;;
9461;SDS011;4769;42.660;23.262;2023-08-21T13:36:12;5.63;;;4.40;;
9461;SDS011;4769;42.660;23.262;2023-08-21T13:38:39;8.80;;;4.80;;
9461;SDS011;4769;42.660;23.262;2023-08-21T13:41:05;5.32;;;4.22;;
9461;SDS011;4769;42.660;23.262;2023-08-21T13:43:31;5.32;;;4.68;;
9461;SDS011;4769;42.660;23.262;2023-08-21T13:45:57;6.30;;;4.40;;
9461;SDS011;4769;42.660;23.262;2023-08-21T13:48:22;5.80;;;4.60;;
9461;SDS011;4769;42.660;23.262;2023-08-21T13:50:51;5.10;;;4.60;;
9461;SDS011;4769;42.660;23.262;2023-08-21T13:53:16;5.38;;;4.75;;
9461;SDS011;4769;42.660;23.262;2023-08-21T13:55:42;6.13;;;4.63;;
9461;SDS011;4769;42.660;23.262;2023-08-21T13:58:08;5.47;;;4.95;;
9461;SDS011;4769;42.660;23.262;2023-08-21T14:00:33;7.75;;;4.70;;
9461;SDS011;4769;42.660;23.262;2023-08-21T14:02:59;4.82;;;4.43;;
9461;SDS011;4769;42.660;23.262;2023-08-21T14:05:25;6.97;;;4.68;;
9461;SDS011;4769;42.660;23.262;2023-08-21T14:07:53;5.53;;;4.35;;
9461;SDS011;4769;42.660;23.262;2023-08-21T14:10:19;7.75;;;4.80;;
9461;SDS011;4769;42.660;23.262;2023-08-21T14:12:45;7.35;;;4.70;;
9461;SDS011;4769;42.660;23.262;2023-08-21T14:15:10;4.90;;;4.53;;
9461;SDS011;4769;42.660;23.262;2023-08-21T14:17:36;5.13;;;4.47;;
9461;SDS011;4769;42.660;23.262;2023-08-21T14:20:02;6.43;;;4.38;;
9461;SDS011;4769;42.660;23.262;2023-08-21T14:22:28;6.18;;;4.35;;
9461;SDS011;4769;42.660;23.262;2023-08-21T14:24:56;5.50;;;4.50;;
9461;SDS011;4769;42.660;23.262;2023-08-21T14:27:22;5.15;;;4.65;;
9461;SDS011;4769;42.660;23.262;2023-08-21T14:29:47;5.90;;;4.60;;
9461;SDS011;4769;42.660;23.262;2023-08-21T14:32:13;5.55;;;4.70;;
9461;SDS011;4769;42.660;23.262;2023-08-21T14:34:39;6.72;;;4.35;;
9461;SDS011;4769;42.660;23.262;2023-08-21T14:37:04;5.13;;;4.60;;
9461;SDS011;4769;42.660;23.262;2023-08-21T14:39:30;6.82;;;5.10;;
9461;SDS011;4769;42.660;23.262;2023-08-21T14:41:59;7.30;;;4.97;;
9461;SDS011;4769;42.660;23.262;2023-08-21T14:44:24;7.43;;;4.80;;
9461;SDS011;4769;42.660;23.262;2023-08-21T14:46:52;6.55;;;4.88;;
9461;SDS011;4769;42.660;23.262;2023-08-21T14:49:21;8.88;;;4.95;;
9461;SDS011;4769;42.660;23.262;2023-08-21T14:51:47;6.20;;;4.65;;
9461;SDS011;4769;42.660;23.262;2023-08-21T14:54:13;5.07;;;4.60;;